CMB848 Details

Departure: Bahrain International Airport (OBBI)
Arrival: Naval Station Rota (LERT)
Route: NARMI N697 KITOT SISIK UN697 MENLI L677 CVO A1 NOZ A1 METRU P868 ARLOS T340 EVLIB M871 XATOS UM871 SOTAX UN733 CDP R59 ALT MGA
Notes: USTRANSCOM CONTRACT FLIGHT


Current Weather Information
OBBI 251130Z 33008KT CAVOK 38/11 Q1007 NOSIG
LERT 251100Z VRB05KT 9999 FEW040 25/14 Q1016 NOSIG